TFFRTFFF

Guest
Details From TFFR - Pointe a Pitre Le Raizet
To TFFF - Martinique/Aime Cesaire Intl
Flight Number -
Tags decoded
Created
Modified
Stats Distance 105 nm / 195 km
Max Altitude 0 ft / 0 m
Waypoints 4
Social Downloads 0
Likes 0
Share VATSIM

Download

Looking for another format? Having issues loading an existing format? Contact us
Advertisement - Login to hide

Notes

Requested: TFFR DOM FOF D087T GADIL CF27 TFFF Unmatched points: D087T GADIL CF27

Route

TFFR DOM FOF TFFF

ID Type Via Altitude Latitude Longitude Leg Dist Tot Dist Heading (true) Name
O TFFR APT - 0 ft / 0 m 16.26531˚ -61.53181˚ - 0 nm - Pointe a Pitre Le Raizet
DOM NDB - 0 ft / 0 m 15.55094˚ -61.29564˚ 45 nm 45 nm 162° / 162° MELVILLE HALL NDB
FOF NDB - 0 ft / 0 m 14.58908˚ -61.00131˚ 60 nm 105 nm 164° / 164° MARTINIQUE NDB
O TFFF APT - 0 ft / 0 m 14.59103˚ -61.00317˚ 0 nm 105 nm 317° / 317° Martinique/Aime Cesaire Intl

Altitude Profile

Advertisement - Login to hide

TFFR

Details ICAO TFFR (PTP)
Name Pointe a Pitre Le Raizet
Region France (Guadeloupe, Martinique, Saint Barthélemy, Saint Martin)
Timezone America/Guadeloupe (UTC-4.0)
Stats Elevation 35 ft / 11 m (AMSL)
Location 16.265306° -61.531808°
Runways 1
Magnetic Variation 14.857° W

METAR

TFFR 110030Z AUTO 07004KT 9999 FEW062/// ///TCU 24/21 Q1014 BECMG SCT025 SCT035

Decode

TAF

Not found

Departure Runways

ID Width Length Bearing (true) Bearing (mag) Surface Threshold Offset Overrun Length
11 148 ft / 45 m 11,513 ft / 3,509 m 100.94° 115.80° Asphalt 0 ft / 0 m 0 ft / 0 m
29 148 ft / 45 m 11,513 ft / 3,509 m 280.95° 295.81° Asphalt 0 ft / 0 m 0 ft / 0 m

TFFF

Details ICAO TFFF (FDF)
Name Martinique/Aime Cesaire Intl
Region France (Guadeloupe, Martinique, Saint Barthélemy, Saint Martin)
Timezone America/Martinique (UTC-4.0)
Stats Elevation 16 ft / 5 m (AMSL)
Location 14.591032° -61.003173°
Runways 1
Magnetic Variation 15.058° W

METAR

TFFF 110030Z AUTO 00000KT 9999 FEW040 23/20 Q1014 NOSIG

Decode

TAF

TAF TFFF 102300Z 1100/1124 08005KT 9999 SCT035 BECMG 1102/1105 VRB02KT BECMG 1112/1114 10008KT PROB30 TEMPO 1115/1120 SCT018TCU

Decode

Destination Runways

ID Width Length Bearing (true) Bearing (mag) Surface Threshold Offset Overrun Length
09 148 ft / 45 m 9,852 ft / 3,003 m 79.93° 94.99° Asphalt 0 ft / 0 m 0 ft / 0 m
27 148 ft / 45 m 9,852 ft / 3,003 m 259.94° 275.00° Asphalt 820 ft / 250 m 948 ft / 289 m

Approach Navaids

Runway Type Ident Frequency Range Bearing (true) Bearing (mag) Slope Elevation
09 Localiser FF 109.90 MHz 18 nm / 33 km 79.90° 94.96° - 16 ft / 5 m (AMSL)
09 Glidescope FF 109.90 MHz 10 nm / 19 km 79.93° 94.99° 3.00° 16 ft / 5 m (AMSL)

Popular Alternatives